sensor_id;sensor_type;location;lat;lon;timestamp;temperature;humidity
56336;DHT22;42241;53.510;10.170;2023-04-03T00:01:16;1.40;99.90
56336;DHT22;42241;53.510;10.170;2023-04-03T00:03:47;1.40;99.90
56336;DHT22;42241;53.510;10.170;2023-04-03T00:06:12;1.40;99.90
56336;DHT22;42241;53.510;10.170;2023-04-03T00:08:38;1.40;99.90
56336;DHT22;42241;53.510;10.170;2023-04-03T00:11:04;1.30;99.90
56336;DHT22;42241;53.510;10.170;2023-04-03T00:13:30;1.30;99.90
56336;DHT22;42241;53.510;10.170;2023-04-03T00:15:56;1.30;99.90
56336;DHT22;42241;53.510;10.170;2023-04-03T00:18:21;1.30;99.90
56336;DHT22;42241;53.510;10.170;2023-04-03T00:20:50;1.30;99.90
56336;DHT22;42241;53.510;10.170;2023-04-03T00:23:15;1.30;99.90
56336;DHT22;42241;53.510;10.170;2023-04-03T00:25:41;1.30;99.90
56336;DHT22;42241;53.510;10.170;2023-04-03T00:28:07;1.30;99.90
56336;DHT22;42241;53.510;10.170;2023-04-03T00:30:32;1.30;99.90
56336;DHT22;42241;53.510;10.170;2023-04-03T00:32:58;1.30;99.90
56336;DHT22;42241;53.510;10.170;2023-04-03T00:35:24;1.20;99.90
56336;DHT22;42241;53.510;10.170;2023-04-03T00:37:53;1.20;99.90
56336;DHT22;42241;53.510;10.170;2023-04-03T00:40:22;1.20;99.90
56336;DHT22;42241;53.510;10.170;2023-04-03T00:42:48;1.20;99.90
56336;DHT22;42241;53.510;10.170;2023-04-03T00:45:22;1.20;99.90
56336;DHT22;42241;53.510;10.170;2023-04-03T00:47:49;1.10;99.90
56336;DHT22;42241;53.510;10.170;2023-04-03T00:50:15;1.10;99.90
56336;DHT22;42241;53.510;10.170;2023-04-03T00:52:43;1.10;99.90
56336;DHT22;42241;53.510;10.170;2023-04-03T00:55:11;1.10;99.90
56336;DHT22;42241;53.510;10.170;2023-04-03T00:57:37;1.00;99.90
56336;DHT22;42241;53.510;10.170;2023-04-03T01:00:08;1.00;99.90
56336;DHT22;42241;53.510;10.170;2023-04-03T01:02:37;1.00;99.90
56336;DHT22;42241;53.510;10.170;2023-04-03T01:05:06;1.00;99.90
56336;DHT22;42241;53.510;10.170;2023-04-03T01:07:34;1.00;99.90
56336;DHT22;42241;53.510;10.170;2023-04-03T01:10:04;1.00;99.90
56336;DHT22;42241;53.510;10.170;2023-04-03T01:14:56;1.00;99.90
56336;DHT22;42241;53.510;10.170;2023-04-03T01:20:13;1.00;99.90
56336;DHT22;42241;53.510;10.170;2023-04-03T01:22:48;1.00;99.90
56336;DHT22;42241;53.510;10.170;2023-04-03T01:25:17;1.00;99.90
56336;DHT22;42241;53.510;10.170;2023-04-03T01:27:45;1.00;99.90
56336;DHT22;42241;53.510;10.170;2023-04-03T01:30:10;1.00;99.90
56336;DHT22;42241;53.510;10.170;2023-04-03T01:32:38;0.90;99.90
56336;DHT22;42241;53.510;10.170;2023-04-03T01:35:03;0.90;99.90
56336;DHT22;42241;53.510;10.170;2023-04-03T01:37:30;0.80;99.90
56336;DHT22;42241;53.510;10.170;2023-04-03T01:39:55;0.80;99.90
56336;DHT22;42241;53.510;10.170;2023-04-03T01:42:21;0.80;99.90
56336;DHT22;42241;53.510;10.170;2023-04-03T01:44:49;0.80;99.90
56336;DHT22;42241;53.510;10.170;2023-04-03T01:47:14;0.80;99.90
56336;DHT22;42241;53.510;10.170;2023-04-03T01:49:42;0.70;99.90
56336;DHT22;42241;53.510;10.170;2023-04-03T01:52:08;0.70;99.90
56336;DHT22;42241;53.510;10.170;2023-04-03T01:54:35;0.70;99.90
56336;DHT22;42241;53.510;10.170;2023-04-03T01:57:03;0.70;99.90
56336;DHT22;42241;53.510;10.170;2023-04-03T01:59:31;0.70;99.90
56336;DHT22;42241;53.510;10.170;2023-04-03T02:01:59;0.80;99.90
56336;DHT22;42241;53.510;10.170;2023-04-03T02:04:24;0.80;99.90
56336;DHT22;42241;53.510;10.170;2023-04-03T02:06:54;0.70;99.90
56336;DHT22;42241;53.510;10.170;2023-04-03T02:09:20;0.70;99.90
56336;DHT22;42241;53.510;10.170;2023-04-03T02:11:45;0.70;99.90
56336;DHT22;42241;53.510;10.170;2023-04-03T02:14:11;0.80;99.90
56336;DHT22;42241;53.510;10.170;2023-04-03T02:16:36;0.80;99.90
56336;DHT22;42241;53.510;10.170;2023-04-03T02:19:02;0.70;99.90
56336;DHT22;42241;53.510;10.170;2023-04-03T02:21:27;0.70;99.90
56336;DHT22;42241;53.510;10.170;2023-04-03T02:23:53;0.70;99.90
56336;DHT22;42241;53.510;10.170;2023-04-03T02:26:21;0.60;99.90
56336;DHT22;42241;53.510;10.170;2023-04-03T02:28:47;0.60;99.90
56336;DHT22;42241;53.510;10.170;2023-04-03T02:31:13;0.60;99.90
56336;DHT22;42241;53.510;10.170;2023-04-03T02:33:40;0.60;99.90
56336;DHT22;42241;53.510;10.170;2023-04-03T02:36:06;0.60;99.90
56336;DHT22;42241;53.510;10.170;2023-04-03T02:38:32;0.50;99.90
56336;DHT22;42241;53.510;10.170;2023-04-03T02:41:04;0.50;99.90
56336;DHT22;42241;53.510;10.170;2023-04-03T02:43:30;0.50;99.90
56336;DHT22;42241;53.510;10.170;2023-04-03T02:45:55;0.50;99.90
56336;DHT22;42241;53.510;10.170;2023-04-03T02:48:23;0.50;99.90
56336;DHT22;42241;53.510;10.170;2023-04-03T02:50:49;0.40;99.90
56336;DHT22;42241;53.510;10.170;2023-04-03T02:53:17;0.50;99.90
56336;DHT22;42241;53.510;10.170;2023-04-03T02:55:43;0.40;99.90
56336;DHT22;42241;53.510;10.170;2023-04-03T02:58:09;0.40;99.90
56336;DHT22;42241;53.510;10.170;2023-04-03T03:00:34;0.50;99.90
56336;DHT22;42241;53.510;10.170;2023-04-03T03:03:00;0.40;99.90
56336;DHT22;42241;53.510;10.170;2023-04-03T03:05:26;0.40;99.90
56336;DHT22;42241;53.510;10.170;2023-04-03T03:07:51;0.30;99.90
56336;DHT22;42241;53.510;10.170;2023-04-03T03:10:17;0.30;99.90
56336;DHT22;42241;53.510;10.170;2023-04-03T03:12:45;0.30;99.90
56336;DHT22;42241;53.510;10.170;2023-04-03T03:15:15;0.30;99.90
56336;DHT22;42241;53.510;10.170;2023-04-03T03:17:42;0.30;99.90
56336;DHT22;42241;53.510;10.170;2023-04-03T03:20:08;0.30;99.90
56336;DHT22;42241;53.510;10.170;2023-04-03T03:22:36;0.30;99.90
56336;DHT22;42241;53.510;10.170;2023-04-03T03:25:02;0.30;99.90
56336;DHT22;42241;53.510;10.170;2023-04-03T03:27:30;0.20;99.90
56336;DHT22;42241;53.510;10.170;2023-04-03T03:29:56;0.20;99.90
56336;DHT22;42241;53.510;10.170;2023-04-03T03:32:24;0.20;99.90
56336;DHT22;42241;53.510;10.170;2023-04-03T03:34:49;0.20;99.90
56336;DHT22;42241;53.510;10.170;2023-04-03T03:37:15;0.20;99.90
56336;DHT22;42241;53.510;10.170;2023-04-03T03:39:40;0.20;99.90
56336;DHT22;42241;53.510;10.170;2023-04-03T03:42:06;0.20;99.90
56336;DHT22;42241;53.510;10.170;2023-04-03T03:44:33;0.20;99.90
56336;DHT22;42241;53.510;10.170;2023-04-03T03:47:01;0.20;99.90
56336;DHT22;42241;53.510;10.170;2023-04-03T03:49:26;0.20;99.90
56336;DHT22;42241;53.510;10.170;2023-04-03T03:51:54;0.20;99.90
56336;DHT22;42241;53.510;10.170;2023-04-03T03:54:20;0.20;99.90
56336;DHT22;42241;53.510;10.170;2023-04-03T03:56:45;0.10;99.90
56336;DHT22;42241;53.510;10.170;2023-04-03T03:59:13;0.10;99.90
56336;DHT22;42241;53.510;10.170;2023-04-03T04:01:39;0.10;99.90
56336;DHT22;42241;53.510;10.170;2023-04-03T04:04:05;0.00;99.90
56336;DHT22;42241;53.510;10.170;2023-04-03T04:06:30;0.00;99.90
56336;DHT22;42241;53.510;10.170;2023-04-03T04:08:56;0.00;99.90
56336;DHT22;42241;53.510;10.170;2023-04-03T04:11:26;0.00;99.90
56336;DHT22;42241;53.510;10.170;2023-04-03T04:13:56;0.00;99.90
56336;DHT22;42241;53.510;10.170;2023-04-03T04:16:21;-0.10;99.90
56336;DHT22;42241;53.510;10.170;2023-04-03T04:18:47;-0.10;99.90
56336;DHT22;42241;53.510;10.170;2023-04-03T04:21:12;-0.10;99.90
56336;DHT22;42241;53.510;10.170;2023-04-03T04:23:40;-0.10;99.90
56336;DHT22;42241;53.510;10.170;2023-04-03T04:26:06;-0.10;99.90
56336;DHT22;42241;53.510;10.170;2023-04-03T04:28:32;-0.10;99.90
56336;DHT22;42241;53.510;10.170;2023-04-03T04:30:57;-0.10;99.90
56336;DHT22;42241;53.510;10.170;2023-04-03T04:33:23;-0.10;99.90
56336;DHT22;42241;53.510;10.170;2023-04-03T04:35:54;-0.10;99.90
56336;DHT22;42241;53.510;10.170;2023-04-03T04:38:19;-0.10;99.90
56336;DHT22;42241;53.510;10.170;2023-04-03T04:40:45;-0.20;99.90
56336;DHT22;42241;53.510;10.170;2023-04-03T04:43:10;-0.20;99.90
56336;DHT22;42241;53.510;10.170;2023-04-03T04:45:39;-0.10;99.90
56336;DHT22;42241;53.510;10.170;2023-04-03T04:48:05;-0.10;99.90
56336;DHT22;42241;53.510;10.170;2023-04-03T04:50:30;-0.10;99.90
56336;DHT22;42241;53.510;10.170;2023-04-03T04:52:56;-0.10;99.90
56336;DHT22;42241;53.510;10.170;2023-04-03T04:55:23;-0.10;99.90
56336;DHT22;42241;53.510;10.170;2023-04-03T04:57:51;-0.10;99.90
56336;DHT22;42241;53.510;10.170;2023-04-03T05:00:24;-0.20;99.90
56336;DHT22;42241;53.510;10.170;2023-04-03T05:02:50;-0.10;99.90
56336;DHT22;42241;53.510;10.170;2023-04-03T05:05:16;-0.20;99.90
56336;DHT22;42241;53.510;10.170;2023-04-03T05:07:42;-0.10;99.90
56336;DHT22;42241;53.510;10.170;2023-04-03T05:10:08;-0.10;99.90
56336;DHT22;42241;53.510;10.170;2023-04-03T05:12:33;-0.10;99.90
56336;DHT22;42241;53.510;10.170;2023-04-03T05:14:59;-0.10;99.90
56336;DHT22;42241;53.510;10.170;2023-04-03T05:17:25;-0.10;99.90
56336;DHT22;42241;53.510;10.170;2023-04-03T05:19:55;-0.10;99.90
56336;DHT22;42241;53.510;10.170;2023-04-03T05:22:20;-0.10;99.90
56336;DHT22;42241;53.510;10.170;2023-04-03T05:24:48;0.00;99.90
56336;DHT22;42241;53.510;10.170;2023-04-03T05:27:14;0.00;99.90
56336;DHT22;42241;53.510;10.170;2023-04-03T05:29:39;0.00;99.90
56336;DHT22;42241;53.510;10.170;2023-04-03T05:32:09;0.00;99.90
56336;DHT22;42241;53.510;10.170;2023-04-03T05:34:35;0.10;99.90
56336;DHT22;42241;53.510;10.170;2023-04-03T05:37:03;0.20;99.90
56336;DHT22;42241;53.510;10.170;2023-04-03T05:39:30;0.20;99.90
56336;DHT22;42241;53.510;10.170;2023-04-03T05:41:59;0.20;99.90
56336;DHT22;42241;53.510;10.170;2023-04-03T05:44:24;0.30;99.90
56336;DHT22;42241;53.510;10.170;2023-04-03T05:46:53;0.40;99.90
56336;DHT22;42241;53.510;10.170;2023-04-03T05:49:18;0.40;99.90
56336;DHT22;42241;53.510;10.170;2023-04-03T05:51:46;0.40;99.90
56336;DHT22;42241;53.510;10.170;2023-04-03T05:54:13;0.50;99.90
56336;DHT22;42241;53.510;10.170;2023-04-03T05:56:39;0.60;99.90
56336;DHT22;42241;53.510;10.170;2023-04-03T05:59:06;0.60;99.90
56336;DHT22;42241;53.510;10.170;2023-04-03T06:01:32;0.70;99.90
56336;DHT22;42241;53.510;10.170;2023-04-03T06:03:59;0.80;99.90
56336;DHT22;42241;53.510;10.170;2023-04-03T06:06:24;0.80;99.90
56336;DHT22;42241;53.510;10.170;2023-04-03T06:08:50;0.90;99.90
56336;DHT22;42241;53.510;10.170;2023-04-03T06:11:16;1.00;99.90
56336;DHT22;42241;53.510;10.170;2023-04-03T06:13:41;1.10;99.90
56336;DHT22;42241;53.510;10.170;2023-04-03T06:16:10;1.20;99.90
56336;DHT22;42241;53.510;10.170;2023-04-03T06:18:40;1.30;99.90
56336;DHT22;42241;53.510;10.170;2023-04-03T06:21:08;1.50;99.90
56336;DHT22;42241;53.510;10.170;2023-04-03T06:23:33;1.60;99.90
56336;DHT22;42241;53.510;10.170;2023-04-03T06:26:02;1.70;99.90
56336;DHT22;42241;53.510;10.170;2023-04-03T06:28:27;1.80;99.90
56336;DHT22;42241;53.510;10.170;2023-04-03T06:30:55;2.00;99.90
56336;DHT22;42241;53.510;10.170;2023-04-03T06:33:20;2.10;99.90
56336;DHT22;42241;53.510;10.170;2023-04-03T06:35:46;2.20;99.90
56336;DHT22;42241;53.510;10.170;2023-04-03T06:38:11;2.30;99.90
56336;DHT22;42241;53.510;10.170;2023-04-03T06:40:39;2.40;99.90
56336;DHT22;42241;53.510;10.170;2023-04-03T06:43:05;2.40;99.90
56336;DHT22;42241;53.510;10.170;2023-04-03T06:45:35;2.50;99.90
56336;DHT22;42241;53.510;10.170;2023-04-03T06:48:04;2.60;99.90
56336;DHT22;42241;53.510;10.170;2023-04-03T06:50:29;2.70;99.90
56336;DHT22;42241;53.510;10.170;2023-04-03T06:52:57;2.80;99.90
56336;DHT22;42241;53.510;10.170;2023-04-03T06:55:23;2.90;99.90
56336;DHT22;42241;53.510;10.170;2023-04-03T06:57:48;3.00;99.90
56336;DHT22;42241;53.510;10.170;2023-04-03T07:00:14;3.10;99.90
56336;DHT22;42241;53.510;10.170;2023-04-03T07:02:40;3.20;99.90
56336;DHT22;42241;53.510;10.170;2023-04-03T07:05:06;3.30;99.90
56336;DHT22;42241;53.510;10.170;2023-04-03T07:07:34;3.40;99.90
56336;DHT22;42241;53.510;10.170;2023-04-03T07:10:00;3.50;99.90
56336;DHT22;42241;53.510;10.170;2023-04-03T07:12:29;3.60;99.90
56336;DHT22;42241;53.510;10.170;2023-04-03T07:14:55;3.70;99.90
56336;DHT22;42241;53.510;10.170;2023-04-03T07:17:23;3.80;99.90
56336;DHT22;42241;53.510;10.170;2023-04-03T07:19:54;3.80;99.90
56336;DHT22;42241;53.510;10.170;2023-04-03T07:22:20;3.90;99.90
56336;DHT22;42241;53.510;10.170;2023-04-03T07:24:45;4.00;99.90
56336;DHT22;42241;53.510;10.170;2023-04-03T07:27:13;4.10;99.90
56336;DHT22;42241;53.510;10.170;2023-04-03T07:29:45;4.20;99.90
56336;DHT22;42241;53.510;10.170;2023-04-03T07:32:15;4.30;99.90
56336;DHT22;42241;53.510;10.170;2023-04-03T07:34:43;4.40;99.90
56336;DHT22;42241;53.510;10.170;2023-04-03T07:37:09;4.50;99.90
56336;DHT22;42241;53.510;10.170;2023-04-03T07:39:34;4.60;99.90
56336;DHT22;42241;53.510;10.170;2023-04-03T07:42:00;4.80;99.90
56336;DHT22;42241;53.510;10.170;2023-04-03T07:44:25;5.00;99.90
56336;DHT22;42241;53.510;10.170;2023-04-03T07:46:53;5.10;99.90
56336;DHT22;42241;53.510;10.170;2023-04-03T07:49:20;5.20;99.90
56336;DHT22;42241;53.510;10.170;2023-04-03T07:51:48;5.40;99.90
56336;DHT22;42241;53.510;10.170;2023-04-03T07:54:16;5.70;99.90
56336;DHT22;42241;53.510;10.170;2023-04-03T07:56:42;6.20;99.90
56336;DHT22;42241;53.510;10.170;2023-04-03T07:59:08;6.60;99.90
56336;DHT22;42241;53.510;10.170;2023-04-03T08:01:36;7.30;99.90
56336;DHT22;42241;53.510;10.170;2023-04-03T08:04:01;8.00;99.90
56336;DHT22;42241;53.510;10.170;2023-04-03T08:06:32;8.80;99.90
56336;DHT22;42241;53.510;10.170;2023-04-03T08:09:02;9.80;99.90
56336;DHT22;42241;53.510;10.170;2023-04-03T08:11:29;10.70;99.90
56336;DHT22;42241;53.510;10.170;2023-04-03T08:13:57;11.80;99.90
56336;DHT22;42241;53.510;10.170;2023-04-03T08:16:25;12.40;99.90
56336;DHT22;42241;53.510;10.170;2023-04-03T08:18:52;13.10;99.30
56336;DHT22;42241;53.510;10.170;2023-04-03T08:21:20;13.50;93.00
56336;DHT22;42241;53.510;10.170;2023-04-03T08:23:47;14.40;93.60
56336;DHT22;42241;53.510;10.170;2023-04-03T08:26:16;14.90;85.30
56336;DHT22;42241;53.510;10.170;2023-04-03T08:28:44;15.70;78.90
56336;DHT22;42241;53.510;10.170;2023-04-03T08:31:14;16.60;72.70
56336;DHT22;42241;53.510;10.170;2023-04-03T08:33:42;16.90;66.20
56336;DHT22;42241;53.510;10.170;2023-04-03T08:36:15;17.00;58.40
56336;DHT22;42241;53.510;10.170;2023-04-03T08:38:41;16.30;55.90
56336;DHT22;42241;53.510;10.170;2023-04-03T08:43:58;17.40;61.30
56336;DHT22;42241;53.510;10.170;2023-04-03T08:46:35;18.90;55.90
56336;DHT22;42241;53.510;10.170;2023-04-03T08:49:04;19.80;51.90
56336;DHT22;42241;53.510;10.170;2023-04-03T08:51:35;19.70;46.10
56336;DHT22;42241;53.510;10.170;2023-04-03T08:54:04;19.90;45.70
56336;DHT22;42241;53.510;10.170;2023-04-03T08:56:33;20.90;46.40
56336;DHT22;42241;53.510;10.170;2023-04-03T08:59:06;21.70;42.90
56336;DHT22;42241;53.510;10.170;2023-04-03T09:01:36;23.00;43.80
56336;DHT22;42241;53.510;10.170;2023-04-03T09:04:10;23.60;39.20
56336;DHT22;42241;53.510;10.170;2023-04-03T09:06:36;22.50;36.70
56336;DHT22;42241;53.510;10.170;2023-04-03T09:09:18;23.30;38.40
56336;DHT22;42241;53.510;10.170;2023-04-03T09:11:55;24.30;38.40
56336;DHT22;42241;53.510;10.170;2023-04-03T09:14:32;23.50;35.00
56336;DHT22;42241;53.510;10.170;2023-04-03T09:17:07;24.00;33.10
56336;DHT22;42241;53.510;10.170;2023-04-03T09:19:37;24.00;33.30
56336;DHT22;42241;53.510;10.170;2023-04-03T09:22:23;23.40;31.90
56336;DHT22;42241;53.510;10.170;2023-04-03T09:24:52;23.60;33.70
56336;DHT22;42241;53.510;10.170;2023-04-03T09:27:19;23.80;31.20
56336;DHT22;42241;53.510;10.170;2023-04-03T09:29:45;23.60;32.60
56336;DHT22;42241;53.510;10.170;2023-04-03T09:32:33;23.80;33.10
56336;DHT22;42241;53.510;10.170;2023-04-03T09:34:59;23.30;30.60
56336;DHT22;42241;53.510;10.170;2023-04-03T09:37:35;23.60;30.40
56336;DHT22;42241;53.510;10.170;2023-04-03T09:40:02;24.80;31.50
56336;DHT22;42241;53.510;10.170;2023-04-03T09:42:29;26.00;30.90
56336;DHT22;42241;53.510;10.170;2023-04-03T09:45:00;25.30;28.60
56336;DHT22;42241;53.510;10.170;2023-04-03T09:52:43;25.80;30.00
56336;DHT22;42241;53.510;10.170;2023-04-03T09:55:22;25.40;28.40
56336;DHT22;42241;53.510;10.170;2023-04-03T09:57:59;26.60;28.50
56336;DHT22;42241;53.510;10.170;2023-04-03T10:00:27;27.00;27.90
56336;DHT22;42241;53.510;10.170;2023-04-03T10:02:56;26.10;27.00
56336;DHT22;42241;53.510;10.170;2023-04-03T10:10:41;27.70;29.40
56336;DHT22;42241;53.510;10.170;2023-04-03T10:13:13;27.30;28.40
56336;DHT22;42241;53.510;10.170;2023-04-03T10:15:43;27.80;28.30
56336;DHT22;42241;53.510;10.170;2023-04-03T10:18:18;26.60;27.00
56336;DHT22;42241;53.510;10.170;2023-04-03T10:20:51;25.90;27.30
56336;DHT22;42241;53.510;10.170;2023-04-03T10:23:31;26.30;27.60
56336;DHT22;42241;53.510;10.170;2023-04-03T10:41:33;21.10;31.00
56336;DHT22;42241;53.510;10.170;2023-04-03T10:46:52;21.60;28.00
56336;DHT22;42241;53.510;10.170;2023-04-03T10:54:40;22.00;33.50
56336;DHT22;42241;53.510;10.170;2023-04-03T10:57:09;25.60;31.50
56336;DHT22;42241;53.510;10.170;2023-04-03T10:59:43;25.80;27.80
56336;DHT22;42241;53.510;10.170;2023-04-03T11:04:40;25.50;28.30
56336;DHT22;42241;53.510;10.170;2023-04-03T11:07:15;26.20;29.60
56336;DHT22;42241;53.510;10.170;2023-04-03T11:09:45;28.50;28.20
56336;DHT22;42241;53.510;10.170;2023-04-03T11:12:17;26.50;27.80
56336;DHT22;42241;53.510;10.170;2023-04-03T11:14:46;27.30;28.50
56336;DHT22;42241;53.510;10.170;2023-04-03T11:19:54;22.20;29.90
56336;DHT22;42241;53.510;10.170;2023-04-03T11:25:14;16.70;37.30
56336;DHT22;42241;53.510;10.170;2023-04-03T11:30:09;15.20;41.00
56336;DHT22;42241;53.510;10.170;2023-04-03T11:35:08;20.70;36.90
56336;DHT22;42241;53.510;10.170;2023-04-03T11:37:46;23.80;31.70
56336;DHT22;42241;53.510;10.170;2023-04-03T11:42:47;27.60;28.70
56336;DHT22;42241;53.510;10.170;2023-04-03T11:47:48;25.70;28.80
56336;DHT22;42241;53.510;10.170;2023-04-03T11:50:57;22.70;31.60
56336;DHT22;42241;53.510;10.170;2023-04-03T12:05:51;26.70;30.00
56336;DHT22;42241;53.510;10.170;2023-04-03T12:13:36;23.10;29.50
56336;DHT22;42241;53.510;10.170;2023-04-03T12:16:03;19.90;34.10
56336;DHT22;42241;53.510;10.170;2023-04-03T12:21:17;17.90;38.70
56336;DHT22;42241;53.510;10.170;2023-04-03T12:29:17;27.20;28.30
56336;DHT22;42241;53.510;10.170;2023-04-03T12:31:46;30.00;26.40
56336;DHT22;42241;53.510;10.170;2023-04-03T12:34:38;28.20;24.60
56336;DHT22;42241;53.510;10.170;2023-04-03T12:37:09;26.10;25.90
56336;DHT22;42241;53.510;10.170;2023-04-03T12:45:02;17.50;34.40
56336;DHT22;42241;53.510;10.170;2023-04-03T12:47:36;16.10;37.20
56336;DHT22;42241;53.510;10.170;2023-04-03T12:50:04;14.80;38.30
56336;DHT22;42241;53.510;10.170;2023-04-03T12:52:35;14.60;40.50
56336;DHT22;42241;53.510;10.170;2023-04-03T12:55:02;14.20;40.70
56336;DHT22;42241;53.510;10.170;2023-04-03T12:57:29;13.80;43.00
56336;DHT22;42241;53.510;10.170;2023-04-03T12:59:55;13.60;42.60
56336;DHT22;42241;53.510;10.170;2023-04-03T13:02:23;13.30;42.80
56336;DHT22;42241;53.510;10.170;2023-04-03T13:04:52;12.70;43.70
56336;DHT22;42241;53.510;10.170;2023-04-03T13:07:22;12.40;44.60
56336;DHT22;42241;53.510;10.170;2023-04-03T13:09:57;12.60;43.40
56336;DHT22;42241;53.510;10.170;2023-04-03T13:12:24;12.20;43.70
56336;DHT22;42241;53.510;10.170;2023-04-03T13:14:57;11.90;44.60
56336;DHT22;42241;53.510;10.170;2023-04-03T13:17:25;11.80;45.10
56336;DHT22;42241;53.510;10.170;2023-04-03T13:19:52;11.40;43.00
56336;DHT22;42241;53.510;10.170;2023-04-03T13:24:43;11.30;47.30
56336;DHT22;42241;53.510;10.170;2023-04-03T13:27:16;11.30;45.20
56336;DHT22;42241;53.510;10.170;2023-04-03T13:29:42;11.80;47.50
56336;DHT22;42241;53.510;10.170;2023-04-03T13:32:13;12.10;46.40
56336;DHT22;42241;53.510;10.170;2023-04-03T13:34:42;12.10;46.80
56336;DHT22;42241;53.510;10.170;2023-04-03T13:40:03;12.00;45.50
56336;DHT22;42241;53.510;10.170;2023-04-03T13:42:30;11.90;46.00
56336;DHT22;42241;53.510;10.170;2023-04-03T13:45:11;11.50;45.00
56336;DHT22;42241;53.510;10.170;2023-04-03T13:47:41;11.10;45.20
56336;DHT22;42241;53.510;10.170;2023-04-03T13:52:44;10.70;44.80
56336;DHT22;42241;53.510;10.170;2023-04-03T13:55:22;10.70;46.00
56336;DHT22;42241;53.510;10.170;2023-04-03T13:57:49;10.60;45.90
56336;DHT22;42241;53.510;10.170;2023-04-03T14:02:55;11.00;48.40
56336;DHT22;42241;53.510;10.170;2023-04-03T14:05:21;11.10;47.20
56336;DHT22;42241;53.510;10.170;2023-04-03T14:07:49;11.10;45.50
56336;DHT22;42241;53.510;10.170;2023-04-03T14:10:16;10.90;44.30
56336;DHT22;42241;53.510;10.170;2023-04-03T14:12:41;10.80;44.40
56336;DHT22;42241;53.510;10.170;2023-04-03T14:15:12;10.50;44.20
56336;DHT22;42241;53.510;10.170;2023-04-03T14:17:42;10.30;47.10
56336;DHT22;42241;53.510;10.170;2023-04-03T14:20:10;10.10;47.30
56336;DHT22;42241;53.510;10.170;2023-04-03T14:22:39;10.00;47.00
56336;DHT22;42241;53.510;10.170;2023-04-03T14:25:04;9.90;48.10
56336;DHT22;42241;53.510;10.170;2023-04-03T14:27:34;9.80;47.70
56336;DHT22;42241;53.510;10.170;2023-04-03T14:30:01;9.70;47.60
56336;DHT22;42241;53.510;10.170;2023-04-03T14:32:30;10.00;46.20
56336;DHT22;42241;53.510;10.170;2023-04-03T14:35:04;10.20;47.60
56336;DHT22;42241;53.510;10.170;2023-04-03T14:37:30;10.00;47.10
56336;DHT22;42241;53.510;10.170;2023-04-03T14:39:58;9.90;49.20
56336;DHT22;42241;53.510;10.170;2023-04-03T14:42:27;9.80;49.40
56336;DHT22;42241;53.510;10.170;2023-04-03T14:45:06;9.60;50.60
56336;DHT22;42241;53.510;10.170;2023-04-03T14:47:33;9.60;48.70
56336;DHT22;42241;53.510;10.170;2023-04-03T14:50:02;9.60;50.70
56336;DHT22;42241;53.510;10.170;2023-04-03T14:52:32;9.60;50.20
56336;DHT22;42241;53.510;10.170;2023-04-03T14:54:58;9.90;48.20
56336;DHT22;42241;53.510;10.170;2023-04-03T14:57:27;10.70;46.10
56336;DHT22;42241;53.510;10.170;2023-04-03T14:59:53;11.40;46.20
56336;DHT22;42241;53.510;10.170;2023-04-03T15:02:28;11.80;43.60
56336;DHT22;42241;53.510;10.170;2023-04-03T15:04:54;12.50;41.40
56336;DHT22;42241;53.510;10.170;2023-04-03T15:07:20;12.30;40.60
56336;DHT22;42241;53.510;10.170;2023-04-03T15:09:46;12.40;40.80
56336;DHT22;42241;53.510;10.170;2023-04-03T15:12:12;12.00;41.40
56336;DHT22;42241;53.510;10.170;2023-04-03T15:14:37;11.70;42.20
56336;DHT22;42241;53.510;10.170;2023-04-03T15:17:06;10.80;43.20
56336;DHT22;42241;53.510;10.170;2023-04-03T15:19:34;11.00;43.60
56336;DHT22;42241;53.510;10.170;2023-04-03T15:22:01;11.20;43.80
56336;DHT22;42241;53.510;10.170;2023-04-03T15:24:26;11.50;43.20
56336;DHT22;42241;53.510;10.170;2023-04-03T15:26:54;10.80;44.10
56336;DHT22;42241;53.510;10.170;2023-04-03T15:29:22;10.60;46.40
56336;DHT22;42241;53.510;10.170;2023-04-03T15:31:48;10.40;46.10
56336;DHT22;42241;53.510;10.170;2023-04-03T15:34:15;10.10;46.60
56336;DHT22;42241;53.510;10.170;2023-04-03T15:36:41;9.80;48.30
56336;DHT22;42241;53.510;10.170;2023-04-03T15:39:06;9.60;50.30
56336;DHT22;42241;53.510;10.170;2023-04-03T15:41:36;9.00;50.70
56336;DHT22;42241;53.510;10.170;2023-04-03T15:44:02;9.70;51.10
56336;DHT22;42241;53.510;10.170;2023-04-03T15:46:30;10.20;48.70
56336;DHT22;42241;53.510;10.170;2023-04-03T15:48:55;10.10;47.90
56336;DHT22;42241;53.510;10.170;2023-04-03T15:51:21;9.60;48.90
56336;DHT22;42241;53.510;10.170;2023-04-03T15:53:46;9.30;52.10
56336;DHT22;42241;53.510;10.170;2023-04-03T15:56:14;9.00;52.50
56336;DHT22;42241;53.510;10.170;2023-04-03T15:58:42;8.90;55.00
56336;DHT22;42241;53.510;10.170;2023-04-03T16:01:10;8.60;54.20
56336;DHT22;42241;53.510;10.170;2023-04-03T16:03:36;8.50;55.80
56336;DHT22;42241;53.510;10.170;2023-04-03T16:06:09;8.50;58.40
56336;DHT22;42241;53.510;10.170;2023-04-03T16:08:36;8.40;58.60
56336;DHT22;42241;53.510;10.170;2023-04-03T16:11:02;8.40;59.10
56336;DHT22;42241;53.510;10.170;2023-04-03T16:13:27;8.20;58.60
56336;DHT22;42241;53.510;10.170;2023-04-03T16:15:55;8.10;59.90
56336;DHT22;42241;53.510;10.170;2023-04-03T16:18:26;8.00;62.20
56336;DHT22;42241;53.510;10.170;2023-04-03T16:20:52;8.00;63.30
56336;DHT22;42241;53.510;10.170;2023-04-03T16:23:17;8.00;60.70
56336;DHT22;42241;53.510;10.170;2023-04-03T16:25:43;7.90;59.90
56336;DHT22;42241;53.510;10.170;2023-04-03T16:28:14;7.90;62.10
56336;DHT22;42241;53.510;10.170;2023-04-03T16:30:41;7.80;62.10
56336;DHT22;42241;53.510;10.170;2023-04-03T16:33:09;7.80;65.10
56336;DHT22;42241;53.510;10.170;2023-04-03T16:35:35;7.70;68.30
56336;DHT22;42241;53.510;10.170;2023-04-03T16:38:00;7.70;70.40
56336;DHT22;42241;53.510;10.170;2023-04-03T16:40:28;7.60;71.40
56336;DHT22;42241;53.510;10.170;2023-04-03T16:42:53;7.50;72.70
56336;DHT22;42241;53.510;10.170;2023-04-03T16:45:19;7.40;74.90
56336;DHT22;42241;53.510;10.170;2023-04-03T16:47:45;7.30;75.60
56336;DHT22;42241;53.510;10.170;2023-04-03T16:50:13;7.30;78.30
56336;DHT22;42241;53.510;10.170;2023-04-03T16:52:38;7.20;77.70
56336;DHT22;42241;53.510;10.170;2023-04-03T16:55:04;7.30;80.60
56336;DHT22;42241;53.510;10.170;2023-04-03T16:57:32;7.20;81.60
56336;DHT22;42241;53.510;10.170;2023-04-03T17:00:00;7.10;82.40
56336;DHT22;42241;53.510;10.170;2023-04-03T17:02:26;7.00;85.10
56336;DHT22;42241;53.510;10.170;2023-04-03T17:04:52;6.90;85.40
56336;DHT22;42241;53.510;10.170;2023-04-03T17:07:18;6.80;88.30
56336;DHT22;42241;53.510;10.170;2023-04-03T17:09:46;6.80;89.90
56336;DHT22;42241;53.510;10.170;2023-04-03T17:12:12;6.80;91.40